Latest Weather Observations for Archerfield

IDQ60901

Issued at 5:21 pm EST Saturday 13 February 2016 (issued every 10 minutes, with the page automatically refreshed every 10 minutes)

About weather observations | Map of Brisbane area stations | Latest observations for Brisbane area | Other Formats
Station Details ID: 040211 Name: ARCHERFIELD AIRPORT Lat: -27.57 Lon: 153.01 Height: 12.5 m
Data from the previous 72 hours. | See also: Recent months at Archerfield
Date/Time
EST
Tmp

°C
App
Tmp
°C
Dew
Point
°C
Rel
Hum
%
Delta-T

°C
Wind Press
QNH
hPa
Press
MSL
hPa
Rain
since
9 am
mm
Dir
 
Spd
km/h
Gust
km/h
Spd
kts
Gust
kts
13/05:00pm 26.0 24.8 18.4 63 4.8 SE 22 32 12 17 1009.7 1009.6 0.0
13/04:30pm 26.6 24.2 18.2 60 5.3 SE 28 39 15 21 1009.5 1009.4 0.0
13/04:00pm 26.3 23.6 18.4 61 5.0 SE 30 39 16 21 1009.5 1009.4 0.0
13/03:30pm 27.5 25.5 18.2 57 5.9 SE 26 39 14 21 1009.4 1009.3 0.0
13/03:00pm 27.2 24.5 18.5 59 5.6 SE 30 39 16 21 1009.5 1009.4 0.0
13/02:30pm 27.6 25.7 18.6 58 5.8 SE 26 37 14 20 1009.5 1009.4 0.0
13/02:00pm 27.5 24.9 17.9 55 6.1 SSE 28 39 15 21 1009.7 1009.6 0.0
13/01:39pm 28.2 25.7 18.0 54 6.5 SE 28 46 15 25 1009.8 1009.7 0.0
13/01:30pm 28.3 25.2 18.4 55 6.3 SE 32 41 17 22 1009.9 1009.8 0.0
13/01:17pm 28.7 26.0 18.5 54 6.5 SSE 30 48 16 26 1010.1 1010.0 0.0
13/01:00pm 27.5 25.3 18.8 59 5.6 SSE 28 37 15 20 1010.4 1010.3 0.0
13/12:30pm 25.1 23.8 19.9 73 3.4 SE 26 35 14 19 1011.1 1011.0 0.0
13/12:00pm 24.4 21.6 19.5 74 3.1 ESE 33 44 18 24 1011.4 1011.3 0.0
13/11:30am 27.0 24.6 18.3 59 5.5 SE 28 48 15 26 1011.1 1011.0 0.0
13/11:29am 26.8 24.2 17.8 57 5.7 SE 28 48 15 26 1011.1 1011.0 0.0
13/11:00am 25.8 23.5 18.5 64 4.6 SE 28 35 15 19 1011.4 1011.3 0.0
13/10:34am 26.1 23.6 18.0 61 5.1 SSE 28 46 15 25 1011.2 1011.1 0.0
13/10:30am 27.0 25.4 18.3 59 5.5 SSE 24 32 13 17 1011.2 1011.1 0.0
13/10:00am 26.5 25.5 16.7 55 6.1 SSE 17 28 9 15 1011.3 1011.2 0.0
13/09:30am 26.9 25.0 16.8 54 6.3 SSE 22 33 12 18 1011.4 1011.3 0.0
13/09:00am 25.9 25.1 16.2 55 6.0 S 15 24 8 13 1011.7 1011.6 0.0
13/08:30am 25.0 24.2 17.0 61 5.0 S 17 22 9 12 1011.8 1011.7 0.0
13/08:00am 24.7 23.2 16.7 61 4.9 SSW 20 28 11 15 1011.7 1011.6 0.0
13/07:30am 23.4 23.2 16.7 66 4.1 SSW 13 17 7 9 1011.9 1011.8 0.0
13/07:00am 22.4 23.5 17.1 72 3.3 WSW 7 9 4 5 1011.8 1011.7 0.0
13/06:30am 21.0 22.0 16.8 77 2.6 SW 7 11 4 6 1011.6 1011.5 0.0
13/06:00am 19.8 20.4 16.8 83 1.8 SW 9 11 5 6 1011.1 1011.0 0.0
13/05:30am 19.6 20.5 16.6 83 1.8 SSW 7 9 4 5 1011.0 1010.9 0.0
13/05:00am 19.2 19.6 16.4 84 1.7 SW 9 13 5 7 1010.7 1010.6 0.0
13/04:30am 19.2 19.3 16.6 85 1.6 SW 11 13 6 7 1010.6 1010.5 0.0
13/04:00am 19.3 19.7 16.3 83 1.8 SSW 9 11 5 6 1010.8 1010.7 0.0
13/03:30am 19.5 20.3 16.3 82 1.9 SSW 7 9 4 5 1010.9 1010.8 0.0
13/03:00am 19.4 20.1 16.1 81 2.0 SSW 7 9 4 5 1011.0 1010.9 0.0
13/02:30am 19.6 20.3 16.1 80 2.1 SSW 7 9 4 5 1011.2 1011.1 0.0
13/02:00am 19.8 20.4 15.7 77 2.4 SSW 7 9 4 5 1011.4 1011.3 0.0
13/01:30am 19.9 20.6 16.0 78 2.3 SW 7 11 4 6 1011.5 1011.4 0.0
13/01:00am 20.0 20.1 15.6 76 2.6 SSW 9 11 5 6 1011.4 1011.3 0.0
13/12:30am 20.4 20.5 15.6 74 2.9 SSW 9 11 5 6 1012.1 1012.0 0.0
13/12:00am 21.2 20.9 15.5 70 3.4 SSW 11 17 6 9 1012.3 1012.2 0.0
 
Date/Time
EST
Tmp

°C
App
Tmp
°C
Dew
Point
°C
Rel
Hum
%
Delta-T

°C
Wind Press
QNH
hPa
Press
MSL
hPa
Rain
since
9 am
mm
Dir
 
Spd
km/h
Gust
km/h
Spd
kts
Gust
kts
12/11:30pm 21.7 21.6 16.0 70 3.4 SSW 11 13 6 7 1012.6 1012.5 0.0
12/11:00pm 22.3 22.7 16.3 69 3.6 SSW 9 15 5 8 1013.1 1013.0 0.0
12/10:30pm 22.5 22.5 16.3 68 3.8 SSE 11 17 6 9 1013.3 1013.2 0.0
12/10:00pm 22.8 22.5 16.4 67 3.9 S 13 17 7 9 1013.2 1013.1 0.0
12/09:30pm 23.5 22.8 16.5 65 4.3 SSE 15 20 8 11 1013.4 1013.3 0.0
12/09:00pm 23.6 23.0 16.6 65 4.3 SSE 15 22 8 12 1013.3 1013.2 0.0
12/08:30pm 24.1 23.2 16.9 64 4.4 SSE 17 24 9 13 1013.4 1013.3 0.0
12/08:00pm 24.4 23.7 16.4 61 4.9 SSE 15 20 8 11 1013.1 1013.0 0.0
12/07:30pm 24.9 23.6 15.8 57 5.5 SSE 17 28 9 15 1012.9 1012.8 0.0
12/07:00pm 24.9 23.6 16.9 61 4.9 SE 19 24 10 13 1012.9 1012.8 0.0
12/06:30pm 25.7 23.3 16.3 56 5.8 SE 24 39 13 21 1012.6 1012.5 0.0
12/06:00pm 26.5 22.5 16.1 52 6.4 ESE 32 41 17 22 1012.3 1012.2 0.0
12/05:30pm 27.0 23.0 16.3 52 6.6 ESE 32 39 17 21 1012.0 1011.9 0.0
12/05:00pm 27.8 23.9 16.4 50 7.1 ESE 32 46 17 25 1011.6 1011.5 0.0
12/04:30pm 27.6 23.6 16.2 49 7.0 ESE 32 43 17 23 1011.5 1011.4 0.0
12/04:06pm 29.2 25.7 18.0 51 7.1 SE 33 52 18 28 1011.3 1011.2 0.0
12/04:00pm 28.5 23.5 17.1 50 7.2 SE 39 52 21 28 1011.3 1011.2 0.0
12/03:45pm 29.1 25.3 16.6 46 7.8 ESE 32 50 17 27 1011.1 1011.0 0.0
12/03:30pm 29.3 25.5 17.2 48 7.6 ESE 33 44 18 24 1011.2 1011.1 0.0
12/03:00pm 27.8 23.0 16.7 50 6.9 ESE 37 50 20 27 1011.4 1011.3 0.0
12/02:30pm 29.0 25.6 17.8 50 7.1 ESE 32 54 17 29 1011.3 1011.2 0.0
12/02:27pm 28.4 24.7 17.0 50 7.1 ESE 32 54 17 29 1011.4 1011.3 0.0
12/02:00pm 29.2 25.5 17.4 49 7.5 ESE 33 46 18 25 1011.5 1011.4 0.0
12/01:30pm 30.5 28.0 18.9 50 7.5 ESE 30 41 16 22 1011.5 1011.4 0.0
12/01:00pm 29.4 26.1 17.9 50 7.3 ESE 32 43 17 23 1011.8 1011.7 0.0
12/12:30pm 29.0 25.8 17.2 49 7.4 ESE 30 44 16 24 1011.9 1011.8 0.0
12/12:06pm 29.8 27.0 17.3 47 7.9 ESE 28 46 15 25 1012.0 1011.9 0.0
12/12:00pm 30.0 27.7 18.4 49 7.5 ESE 28 37 15 20 1012.0 1011.9 0.0
12/11:30am 29.6 26.4 18.1 50 7.4 SE 32 43 17 23 1012.4 1012.3 0.0
12/11:00am 27.5 24.7 17.4 54 6.4 SE 28 41 15 22 1012.5 1012.4 0.0
12/10:30am 29.4 26.8 17.9 50 7.3 ESE 28 39 15 21 1012.7 1012.6 0.0
12/10:00am 29.2 26.9 17.7 50 7.3 SE 26 37 14 20 1013.0 1012.9 0.0
12/09:30am 28.5 25.9 17.7 52 6.8 SE 28 41 15 22 1013.1 1013.0 0.0
12/09:00am 27.8 27.1 18.2 56 6.1 SSE 19 33 10 18 1013.2 1013.1 0.0
12/08:30am 26.2 25.1 17.8 60 5.3 SSE 20 28 11 15 1013.3 1013.2 0.0
12/08:00am 25.2 25.0 17.7 63 4.7 S 15 22 8 12 1013.6 1013.5 0.0
12/07:30am 23.5 23.6 17.5 69 3.7 S 13 20 7 11 1013.6 1013.5 0.0
12/07:00am 21.7 22.6 17.5 77 2.6 S 9 13 5 7 1013.5 1013.4 0.0
12/06:30am 20.7 21.3 16.9 79 2.3 SSW 9 11 5 6 1013.1 1013.0 0.0
12/06:00am 20.6 20.9 17.0 80 2.2 S 11 17 6 9 1012.9 1012.8 0.0
12/05:30am 20.4 20.7 17.0 81 2.1 S 11 15 6 8 1012.9 1012.8 0.0
12/05:00am 20.1 20.7 16.7 81 2.1 SSW 9 11 5 6 1012.8 1012.7 0.0
12/04:30am 20.3 21.2 16.7 80 2.2 S 7 11 4 6 1012.7 1012.6 0.0
12/04:00am 20.7 21.0 16.9 79 2.3 S 11 13 6 7 1012.4 1012.3 0.0
12/03:30am 20.9 20.9 17.3 80 2.2 SSW 13 17 7 9 1012.5 1012.4 0.0
12/03:00am 20.8 21.6 17.4 81 2.1 SSE 9 13 5 7 1012.7 1012.6 0.0
12/02:30am 20.8 21.1 17.0 79 2.3 S 11 13 6 7 1012.7 1012.6 0.0
12/02:00am 20.9 21.2 16.9 78 2.4 S 11 13 6 7 1012.7 1012.6 0.0
12/01:30am 21.3 22.0 17.1 77 2.6 S 9 13 5 7 1012.7 1012.6 0.0
12/01:00am 21.7 21.8 17.5 77 2.6 SSW 13 17 7 9 1013.0 1012.9 0.0
12/12:30am 21.7 21.8 17.5 77 2.6 S 13 17 7 9 1013.0 1012.9 0.0
12/12:00am 22.0 22.6 17.8 77 2.6 S 11 13 6 7 1013.1 1013.0 0.0
 
Date/Time
EST
Tmp

°C
App
Tmp
°C
Dew
Point
°C
Rel
Hum
%
Delta-T

°C
Wind Press
QNH
hPa
Press
MSL
hPa
Rain
since
9 am
mm
Dir
 
Spd
km/h
Gust
km/h
Spd
kts
Gust
kts
11/11:30pm 21.9 23.0 17.9 78 2.5 SSW 9 13 5 7 1013.3 1013.2 0.0
11/11:00pm 22.6 23.8 18.2 76 2.8 S 9 11 5 6 1013.6 1013.5 0.0
11/10:30pm 22.3 23.8 18.1 77 2.6 SW 7 11 4 6 1013.7 1013.6 0.0
11/10:00pm 23.2 24.4 18.3 74 3.1 SSE 9 13 5 7 1013.8 1013.7 0.0
11/09:30pm 23.4 23.9 18.3 73 3.2 SE 13 17 7 9 1013.7 1013.6 0.0
11/09:00pm 23.9 24.3 18.1 70 3.6 ESE 13 20 7 11 1013.6 1013.5 0.0
11/08:30pm 24.3 23.9 18.0 68 4.0 ESE 17 24 9 13 1013.4 1013.3 0.0
11/08:00pm 24.4 24.0 18.1 68 4.0 ESE 17 26 9 14 1013.2 1013.1 0.0
11/07:30pm 24.8 23.6 18.3 67 4.1 ESE 22 33 12 18 1013.0 1012.9 0.0
11/07:00pm 25.2 23.3 17.7 63 4.7 ESE 24 35 13 19 1012.7 1012.6 0.0
11/06:30pm 25.6 22.8 17.3 60 5.2 ESE 28 43 15 23 1012.4 1012.3 0.0
11/06:00pm 26.3 22.2 16.0 53 6.3 ESE 32 41 17 22 1012.0 1011.9 0.0
11/05:30pm 26.9 23.0 16.5 53 6.4 ESE 32 43 17 23 1011.5 1011.4 0.0
11/05:00pm 27.6 24.3 16.9 52 6.7 ESE 30 41 16 22 1011.1 1011.0 0.0
11/04:35pm 27.4 23.6 16.7 52 6.7 ESE 32 50 17 27 1010.9 1010.8 0.0
11/04:30pm 27.5 23.7 16.8 52 6.7 ESE 32 43 17 23 1010.9 1010.8 0.0
11/04:00pm 29.6 26.8 17.4 47 7.7 ESE 28 37 15 20 1010.8 1010.7 0.0
11/03:30pm 29.0 25.9 16.5 46 7.8 ESE 28 37 15 20 1010.7 1010.6 0.0
11/03:00pm 29.4 25.9 16.6 46 8.0 ESE 30 37 16 20 1010.7 1010.6 0.0
11/02:30pm 29.6 26.3 16.1 44 8.4 ESE 28 37 15 20 1010.7 1010.6 0.0
11/02:00pm 30.5 28.2 17.6 46 8.2 ESE 26 43 14 23 1010.9 1010.8 0.0
11/01:30pm 30.4 27.7 15.7 41 9.1 ESE 24 33 13 18 1011.2 1011.1 0.0
11/01:00pm 30.8 28.9 16.8 43 8.8 ESE 22 32 12 17 1011.6 1011.5 0.0
11/12:30pm 30.4 27.8 16.8 44 8.6 ESE 26 33 14 18 1012.0 1011.9 0.0
11/12:00pm 29.3 26.8 15.1 42 8.7 SE 22 32 12 17 1012.3 1012.2 0.0
11/11:30am 29.9 28.5 17.0 45 8.1 ESE 20 28 11 15 1012.5 1012.4 0.0
11/11:00am 29.6 27.9 17.1 47 7.9 ESE 22 35 12 19 1012.5 1012.4 0.0
11/10:30am 29.8 29.3 18.6 51 7.2 SE 19 33 10 18 1012.7 1012.6 0.0
11/10:00am 28.9 28.0 17.7 50 7.1 ESE 19 30 10 16 1013.0 1012.9 0.0
11/09:30am 27.0 26.9 17.8 57 5.8 SSE 15 22 8 12 1013.2 1013.1 0.0
11/09:00am 27.1 25.9 17.6 56 6.0 SSE 20 26 11 14 1013.1 1013.0 0.0
11/08:30am 25.8 25.3 17.7 61 5.1 S 17 22 9 12 1013.1 1013.0 0.0
11/08:00am 25.2 26.1 18.4 66 4.3 SSE 11 19 6 10 1013.3 1013.2 0.0
11/07:30am 23.4 24.6 18.3 73 3.2 SSW 9 13 5 7 1013.2 1013.1 0.0
11/07:00am 21.8 22.4 17.6 77 2.6 SSW 11 15 6 8 1013.0 1012.9 0.0
11/06:30am 20.4 21.9 17.6 84 1.7 SW 6 7 3 4 1012.9 1012.8 0.0
11/06:00am 18.3 20.5 16.5 89 1.1 CALM 0 0 0 0 1012.7 1012.6 0.0
11/05:30am 17.4 19.1 15.2 87 1.3 CALM 0 4 0 2 1012.4 1012.3 0.0
11/05:00am 18.8 19.8 16.9 89 1.1 SSW 7 13 4 7 1012.2 1012.1 0.0
11/04:30am 18.2 20.2 16.0 87 1.3 CALM 0 0 0 0 1012.0 1011.9 0.0
11/04:00am 19.6 21.3 17.2 86 1.5 SSW 4 6 2 3 1011.8 1011.7 0.0
11/03:30am 19.7 20.9 16.9 84 1.7 SSW 6 7 3 4 1011.8 1011.7 0.0
11/03:00am 20.0 21.7 17.2 84 1.7 SSW 4 6 2 3 1011.7 1011.6 0.0
11/02:30am 20.2 21.3 17.2 83 1.8 SW 7 9 4 5 1011.9 1011.8 0.0
11/02:00am 20.6 21.9 17.6 83 1.8 SW 7 7 4 4 1012.2 1012.1 0.0
11/01:30am 20.7 23.0 17.7 83 1.8 SW 2 9 1 5 1012.4 1012.3 0.0
11/01:00am 21.2 24.0 18.0 82 2.0 CALM 0 0 0 0 1012.7 1012.6 0.0
11/12:30am 21.8 24.6 18.0 79 2.4 CALM 0 0 0 0 1013.0 1012.9 0.0
11/12:00am 22.0 24.5 18.2 79 2.4 SW 2 6 1 3 1013.3 1013.2 0.0
 
Date/Time
EST
Tmp

°C
App
Tmp
°C
Dew
Point
°C
Rel
Hum
%
Delta-T

°C
Wind Press
QNH
hPa
Press
MSL
hPa
Rain
since
9 am
mm
Dir
 
Spd
km/h
Gust
km/h
Spd
kts
Gust
kts
10/11:30pm 22.5 24.1 18.3 77 2.6 SSE 7 9 4 5 1013.5 1013.4 0.0
10/11:00pm 22.3 23.8 18.1 77 2.6 SSW 7 9 4 5 1013.7 1013.6 0.0
10/10:30pm 23.0 23.5 18.3 75 2.9 SE 13 19 7 10 1013.7 1013.6 0.0
10/10:00pm 22.9 24.2 18.4 76 2.8 SSE 9 17 5 9 1013.8 1013.7 0.0
10/09:30pm 22.8 23.9 18.1 75 2.9 SE 9 17 5 9 1013.8 1013.7 0.0
10/09:00pm 23.2 23.5 17.9 72 3.3 SE 13 17 7 9 1013.7 1013.6 0.0
10/08:30pm 23.5 23.0 17.7 70 3.6 SE 17 24 9 13 1013.6 1013.5 0.0
10/08:00pm 23.5 21.6 17.7 70 3.6 SE 24 32 13 17 1013.5 1013.4 0.0
10/07:30pm 24.1 22.5 17.4 66 4.2 SE 22 30 12 16 1013.2 1013.1 0.0
10/07:00pm 24.5 22.6 17.7 66 4.3 ESE 24 35 13 19 1013.0 1012.9 0.0
10/06:30pm 24.8 23.2 18.3 67 4.1 SE 24 35 13 19 1012.8 1012.7 0.0
10/06:00pm 25.5 22.8 18.4 65 4.5 SE 30 43 16 23 1012.3 1012.2 0.0
10/05:30pm 26.2 23.1 18.3 61 5.0 ESE 32 41 17 22 1011.8 1011.7 0.0

Latest Capital City Observations: Canberra | Sydney | Melbourne | Brisbane | Adelaide | Perth | Hobart | Darwin

Other Formats:

Comma delimited format used in spreadsheet applications
http://www.bom.gov.au/fwo/IDQ60901/IDQ60901.94575.axf

JavaScript Object Notation format (JSON) in row-major order
http://www.bom.gov.au/fwo/IDQ60901/IDQ60901.94575.json